CAMANCHE RESERVOIR (CMN)

Elevation: 236' · MOKELUMNE R basin · Operator: East Bay Municipal Utility District

Provisional data, subject to change.
Query executed Saturday at 17:25:28   clock

Select a sensor type for a plot of data.
Note: Reservoir Flows are daily averages.

Earlier

Date RES ELE    STORAGE    RES CHG    TOC STO    ABV TOC    OUTFLOW    INFLOW   
 FEET   AF   AF   AF   AF   CFS   CFS  
07/28/2016 220.47 311800 -749 404600 -92800 325 11
07/29/2016 220.36 311080 -754 410850 -- 325 11
07/30/2016 220.23 310240 -797 417100 -- 324 11
07/31/2016 220.11 309460 -780 417100 -107640 326 11
08/01/2016 220.07 309200 -326 417100 -107900 325 272
08/02/2016 220.03 308940 -265 417100 -108160 319 266
08/03/2016 219.99 308680 -291 417100 -108420 311 272
08/04/2016 219.96 308480 -259 417100 -108620 311 277
08/05/2016 219.93 308290 -186 417100 -- 303 278
08/06/2016 219.82 307580 -693 417100 -- 290 11
08/07/2016 219.71 306860 -726 417100 -110240 290 11
08/08/2016 219.60 306150 -655 417100 -110950 291 11
08/09/2016 219.51 305570 -608 417100 -111530 291 11
08/10/2016 219.40 304860 -722 417100 -112240 287 11
08/11/2016 219.30 304220 -627 417100 -112880 275 11
08/12/2016 219.20 303570 -618 417100 -- 276 11
08/13/2016 219.11 302990 -631 417100 -- 276 11
08/14/2016 219.01 302350 -646 417100 -114750 275 11
08/15/2016 218.98 302160 -174 417100 -114940 283 266
08/16/2016 218.96 302030 -132 417100 -115070 290 282
08/17/2016 218.93 301830 -205 417100 -115270 289 288
08/18/2016 218.91 301710 -161 417100 -115390 305 284
08/19/2016 218.89 301580 -229 417100 -- 305 286
08/20/2016 218.76 300740 -741 417100 -- 305 11
08/21/2016 218.65 300040 -695 417100 -117060 306 11
08/22/2016 218.62 299850 -214 417100 -117250 306 286
08/23/2016 218.58 299590 -234 417100 -117510 305 275
08/24/2016 218.57 299530 -45 417100 -117570 305 293
08/25/2016 218.53 299270 -227 417100 -117830 306 282
08/26/2016 218.50 299116 -154 -- -- 301 293
08/27/2016 -- -- -- -- -- -- --

Later | Latest

Warning! This data is preliminary and subject to revision.

Show CMN Map | Plot CMN Data | 1 Month CMN Data | Real-Time CMN Data | CMN Info